createdAt,value
2022-12-14T00:01:49.513Z,100213.64
2022-12-14T00:04:18.679Z,100217.64
2022-12-14T00:06:47.344Z,100219.11
2022-12-14T00:09:18.112Z,100219.69
2022-12-14T00:11:46.805Z,100216.09
2022-12-14T00:14:15.554Z,100211.73
2022-12-14T00:16:44.276Z,100210.55
2022-12-14T00:19:13.029Z,100204.35
2022-12-14T00:21:41.693Z,100205.70
2022-12-14T00:24:12.384Z,100208.63
2022-12-14T00:26:41.062Z,100208.05
2022-12-14T00:29:09.883Z,100214.58
2022-12-14T00:31:40.045Z,100209.23
2022-12-14T00:34:09.127Z,100214.08
2022-12-14T00:36:39.515Z,100208.81
2022-12-14T00:39:11.419Z,100205.22
2022-12-14T00:41:41.604Z,100215.12
2022-12-14T00:44:10.751Z,100214.06
2022-12-14T00:46:40.707Z,100212.98
2022-12-14T00:49:10.613Z,100212.78
2022-12-14T00:51:41.757Z,100214.33
2022-12-14T00:54:11.238Z,100208.98
2022-12-14T00:56:40.145Z,100209.58
2022-12-14T00:59:11.607Z,100205.09
2022-12-14T01:01:40.459Z,100203.80
2022-12-14T01:04:21.089Z,100208.56
2022-12-14T01:06:53.157Z,100212.42
2022-12-14T01:09:24.965Z,100213.02
2022-12-14T01:11:53.930Z,100214.55
2022-12-14T01:14:23.413Z,100204.92
2022-12-14T01:16:52.178Z,100209.45
2022-12-14T01:19:20.829Z,100207.48
2022-12-14T01:21:49.576Z,100209.92
2022-12-14T01:24:19.406Z,100207.98
2022-12-14T01:26:48.381Z,100202.63
2022-12-14T01:29:17.254Z,100201.55
2022-12-14T01:31:48.841Z,100202.32
2022-12-14T01:34:18.746Z,100200.38
2022-12-14T01:36:48.552Z,100200.94
2022-12-14T01:39:18.887Z,100203.24
2022-12-14T01:41:51.645Z,100209.06
2022-12-14T01:44:52.764Z,100207.20
2022-12-14T01:47:28.634Z,100204.59
2022-12-14T01:50:03.013Z,100211.17
2022-12-14T01:52:39.113Z,100206.80
2022-12-14T01:55:13.765Z,100211.64
2022-12-14T01:57:47.687Z,100202.67
2022-12-14T02:00:18.087Z,100191.83
2022-12-14T02:02:53.006Z,100196.78
2022-12-14T02:05:25.131Z,100198.31
2022-12-14T02:07:56.483Z,100200.74
2022-12-14T02:10:29.379Z,100205.66
2022-12-14T02:13:04.141Z,100198.77
2022-12-14T02:15:35.284Z,100190.21
2022-12-14T02:18:09.201Z,100202.73
2022-12-14T02:20:53.343Z,100207.13
2022-12-14T02:23:57.740Z,100196.50
2022-12-14T02:26:57.143Z,100209.20
2022-12-14T02:29:56.219Z,100198.80
2022-12-14T02:32:50.158Z,100198.39
2022-12-14T02:35:30.606Z,100197.39
2022-12-14T02:38:12.714Z,100198.92
2022-12-14T02:40:54.459Z,100201.45
2022-12-14T02:43:31.152Z,100205.72
2022-12-14T02:46:10.510Z,100205.63
2022-12-14T02:48:45.292Z,100204.63
2022-12-14T02:51:24.754Z,100211.30
2022-12-14T02:54:01.156Z,100206.06
2022-12-14T02:56:37.147Z,100202.55
2022-12-14T02:59:10.451Z,100205.70
2022-12-14T03:01:41.871Z,100204.84
2022-12-14T03:04:16.181Z,100204.84
2022-12-14T03:06:57.260Z,100209.79
2022-12-14T03:09:29.831Z,100204.52
2022-12-14T03:12:04.484Z,100200.91
2022-12-14T03:14:39.066Z,100200.69
2022-12-14T03:17:17.579Z,100210.66
2022-12-14T03:19:53.257Z,100202.11
2022-12-14T03:22:28.721Z,100204.53
2022-12-14T03:25:01.626Z,100211.20
2022-12-14T03:27:33.928Z,100206.06
2022-12-14T03:30:08.577Z,100209.34
2022-12-14T03:32:44.737Z,100210.88
2022-12-14T03:35:19.465Z,100214.91
2022-12-14T03:37:54.883Z,100213.82
2022-12-14T03:40:30.939Z,100211.30
2022-12-14T03:43:06.931Z,100216.11
2022-12-14T03:45:46.938Z,100221.28
2022-12-14T03:48:27.864Z,100221.28
2022-12-14T03:51:07.332Z,100215.25
2022-12-14T03:53:43.925Z,100212.73
2022-12-14T03:56:19.869Z,100216.01
2022-12-14T03:59:01.419Z,100218.53
2022-12-14T04:01:40.394Z,100215.78
2022-12-14T04:04:15.611Z,100218.06
2022-12-14T04:06:52.957Z,100219.48
2022-12-14T04:09:32.239Z,100223.53
2022-12-14T04:12:26.756Z,100225.19
2022-12-14T04:15:20.790Z,100220.91
2022-12-14T04:18:27.700Z,100217.63
2022-12-14T04:21:02.002Z,100213.26
2022-12-14T04:23:52.601Z,100213.92
2022-12-14T04:26:32.340Z,100216.33
2022-12-14T04:29:25.983Z,100208.78
2022-12-14T04:32:00.680Z,100209.55
2022-12-14T04:34:32.590Z,100211.95
2022-12-14T04:37:06.139Z,100205.27
2022-12-14T04:39:40.413Z,100203.52
2022-12-14T04:42:13.964Z,100211.06
2022-12-14T04:44:47.445Z,100212.62
2022-12-14T04:47:19.454Z,100212.48
2022-12-14T04:49:54.828Z,100214.14
2022-12-14T04:52:31.239Z,100206.36
2022-12-14T04:55:05.465Z,100212.91
2022-12-14T04:57:41.247Z,100202.61
2022-12-14T05:00:14.409Z,100197.89
2022-12-14T05:03:07.356Z,100200.08
2022-12-14T05:05:42.932Z,100194.94
2022-12-14T05:08:22.760Z,100193.28
2022-12-14T05:11:21.866Z,100182.36
2022-12-14T05:13:52.112Z,100184.64
2022-12-14T05:16:25.627Z,100182.02
2022-12-14T05:18:54.728Z,100182.64
2022-12-14T05:21:42.089Z,100183.41
2022-12-14T05:24:10.910Z,100185.92
2022-12-14T05:26:41.926Z,100185.16
2022-12-14T05:29:14.480Z,100186.16
2022-12-14T05:31:49.311Z,100191.30
2022-12-14T05:34:18.947Z,100185.50
2022-12-14T05:36:47.833Z,100183.64
2022-12-14T05:39:17.509Z,100187.91
2022-12-14T05:41:47.871Z,100197.98
2022-12-14T05:44:20.073Z,100192.09
2022-12-14T05:46:49.870Z,100197.22
2022-12-14T05:49:21.736Z,100193.19
2022-12-14T05:51:50.662Z,100192.53
2022-12-14T05:54:20.588Z,100195.91
2022-12-14T05:56:50.979Z,100184.31
2022-12-14T05:59:20.452Z,100196.27
2022-12-14T06:01:52.099Z,100197.23
2022-12-14T06:04:23.108Z,100195.61
2022-12-14T06:06:52.513Z,100199.23
2022-12-14T06:09:22.400Z,100201.09
2022-12-14T06:11:52.312Z,100207.22
2022-12-14T06:14:23.676Z,100219.17
2022-12-14T06:16:52.380Z,100216.86
2022-12-14T06:19:21.336Z,100218.52
2022-12-14T06:21:52.933Z,100211.83
2022-12-14T06:24:23.171Z,100206.92
2022-12-14T06:26:52.367Z,100205.27
2022-12-14T06:29:22.682Z,100210.30
2022-12-14T06:31:52.656Z,100205.41
2022-12-14T06:34:26.369Z,100207.16
2022-12-14T06:36:57.274Z,100203.84
2022-12-14T06:39:28.843Z,100211.59
2022-12-14T06:41:58.738Z,100212.59
2022-12-14T06:44:27.550Z,100211.94
2022-12-14T06:46:57.056Z,100209.55
2022-12-14T06:49:32.485Z,100208.89
2022-12-14T06:52:01.181Z,100213.92
2022-12-14T06:54:30.232Z,100209.12
2022-12-14T06:56:58.948Z,100210.08
2022-12-14T06:59:28.218Z,100206.93
2022-12-14T07:01:57.211Z,100208.88
2022-12-14T07:04:25.952Z,100204.84
2022-12-14T07:06:54.790Z,100209.21
2022-12-14T07:09:24.310Z,100210.34
2022-12-14T07:11:52.960Z,100220.74
2022-12-14T07:14:24.824Z,100215.13
2022-12-14T07:16:54.023Z,100223.91
2022-12-14T07:19:22.989Z,100220.83
2022-12-14T07:21:54.069Z,100226.32
2022-12-14T07:24:22.915Z,100224.89
2022-12-14T07:26:52.729Z,100220.08
2022-12-14T07:29:21.734Z,100220.40
2022-12-14T07:31:50.847Z,100220.63
2022-12-14T07:34:20.141Z,100216.77
2022-12-14T07:36:51.370Z,100223.02
2022-12-14T07:39:21.189Z,100224.34
2022-12-14T07:41:50.418Z,100225.42
2022-12-14T07:44:22.698Z,100221.78
2022-12-14T07:46:54.410Z,100225.52
2022-12-14T07:49:23.660Z,100218.27
2022-12-14T07:51:53.350Z,100226.23
2022-12-14T07:54:25.948Z,100212.31
2022-12-14T07:56:54.689Z,100223.80
2022-12-14T07:59:23.677Z,100228.48
2022-12-14T08:01:55.108Z,100217.16
2022-12-14T08:04:24.277Z,100221.87
2022-12-14T08:06:53.166Z,100216.45
2022-12-14T08:09:21.980Z,100214.20
2022-12-14T08:11:50.754Z,100217.23
2022-12-14T08:14:19.863Z,100216.86
2022-12-14T08:16:50.432Z,100220.77
2022-12-14T08:19:20.578Z,100210.19
2022-12-14T08:21:49.297Z,100208.17
2022-12-14T08:24:18.188Z,100211.13
2022-12-14T08:26:49.563Z,100209.87
2022-12-14T08:29:21.862Z,100211.33
2022-12-14T08:31:50.777Z,100207.66
2022-12-14T08:34:22.260Z,100204.95
2022-12-14T08:36:50.971Z,100215.52
2022-12-14T08:39:19.844Z,100212.80
2022-12-14T08:41:48.660Z,100215.04
2022-12-14T08:44:18.254Z,100213.97
2022-12-14T08:46:50.592Z,100213.77
2022-12-14T08:49:25.354Z,100212.58
2022-12-14T08:51:57.919Z,100217.42
2022-12-14T08:54:26.799Z,100212.84
2022-12-14T08:56:55.546Z,100210.97
2022-12-14T08:59:51.987Z,100208.88
2022-12-14T09:02:13.505Z,100205.26
2022-12-14T09:04:43.705Z,100199.30
2022-12-14T09:07:12.597Z,100189.52
2022-12-14T09:09:41.883Z,100189.13
2022-12-14T09:12:12.281Z,100194.56
2022-12-14T09:14:41.306Z,100187.03
2022-12-14T09:17:10.005Z,100189.67
2022-12-14T09:19:38.876Z,100187.99
2022-12-14T09:22:07.734Z,100181.34
2022-12-14T09:24:36.996Z,100180.70
2022-12-14T09:27:05.657Z,100174.84
2022-12-14T09:29:34.554Z,100174.06
2022-12-14T09:32:03.546Z,100166.55
2022-12-14T09:34:32.350Z,100166.02
2022-12-14T09:37:04.153Z,100156.97
2022-12-14T09:39:35.259Z,100159.86
2022-12-14T09:42:20.346Z,100163.42
2022-12-14T09:45:01.287Z,100156.30
2022-12-14T09:47:35.501Z,100155.82
2022-12-14T09:50:05.172Z,100151.32
2022-12-14T09:52:39.572Z,100145.80
2022-12-14T09:55:20.190Z,100141.55
2022-12-14T09:57:53.499Z,100132.18
2022-12-14T10:00:23.178Z,100123.00
2022-12-14T10:03:07.863Z,100119.05
2022-12-14T10:06:01.207Z,100114.52
2022-12-14T10:08:35.313Z,100105.86
2022-12-14T10:11:11.344Z,100106.42
2022-12-14T10:13:56.489Z,100102.63
2022-12-14T10:16:31.972Z,100093.52
2022-12-14T10:19:24.241Z,100091.14
2022-12-14T10:21:57.122Z,100085.33
2022-12-14T10:24:30.722Z,100087.25
2022-12-14T10:27:01.387Z,100082.94
2022-12-14T10:29:37.766Z,100084.66
2022-12-14T10:32:19.334Z,100075.19
2022-12-14T10:34:48.543Z,100076.92
2022-12-14T10:37:30.796Z,100068.28
2022-12-14T10:40:29.221Z,100059.64
2022-12-14T10:43:21.596Z,100054.44
2022-12-14T10:46:06.115Z,100054.35
2022-12-14T10:48:50.398Z,100046.58
2022-12-14T10:51:24.923Z,100039.58
2022-12-14T10:53:59.938Z,100044.67
2022-12-14T10:56:31.907Z,100034.28
2022-12-14T10:59:26.886Z,100028.04
2022-12-14T11:02:05.718Z,100021.58
2022-12-14T11:04:39.307Z,100023.00
2022-12-14T11:07:14.810Z,100021.59
2022-12-14T11:09:46.802Z,100027.51
2022-12-14T11:12:23.049Z,100024.77
2022-12-14T11:14:55.550Z,100019.71
2022-12-14T11:17:37.343Z,100018.91
2022-12-14T11:20:17.461Z,100024.03
2022-12-14T11:22:50.419Z,100009.02
2022-12-14T11:25:32.066Z,100017.69
2022-12-14T11:28:36.170Z,100006.39
2022-12-14T11:31:12.193Z,100006.06
2022-12-14T11:33:49.809Z,99989.59
2022-12-14T11:36:27.289Z,99988.90
2022-12-14T11:38:57.419Z,99985.77
2022-12-14T11:41:30.654Z,99986.20
2022-12-14T11:44:21.635Z,99984.80
2022-12-14T11:46:54.639Z,99980.04
2022-12-14T11:49:29.140Z,99978.07
2022-12-14T11:51:58.930Z,99974.54
2022-12-14T11:54:28.367Z,99971.86
2022-12-14T11:57:01.606Z,99976.88
2022-12-14T11:59:38.501Z,99974.23
2022-12-14T12:02:17.876Z,99971.55
2022-12-14T12:04:52.852Z,99973.25
2022-12-14T12:07:26.080Z,99966.46
2022-12-14T12:09:55.475Z,99963.95
2022-12-14T12:12:24.255Z,99961.48
2022-12-14T12:14:58.255Z,99957.25
2022-12-14T12:17:40.396Z,99958.13
2022-12-14T12:20:28.132Z,99966.64
2022-12-14T12:23:03.175Z,99952.91
2022-12-14T12:25:37.658Z,99945.13
2022-12-14T12:28:16.283Z,99946.75
2022-12-14T12:30:50.988Z,99941.59
2022-12-14T12:33:32.597Z,99947.45
2022-12-14T12:36:04.845Z,99934.45
2022-12-14T12:38:49.760Z,99936.83
2022-12-14T13:07:44.815Z,99910.64
2022-12-14T13:10:19.777Z,99902.73
2022-12-14T13:12:51.527Z,99905.03
2022-12-14T13:15:27.247Z,99909.94
2022-12-14T13:18:00.324Z,99907.20
2022-12-14T13:20:31.857Z,99912.02
2022-12-14T13:23:21.648Z,99903.25
2022-12-14T13:26:06.279Z,99910.69
2022-12-14T13:28:50.514Z,99899.38
2022-12-14T13:31:35.555Z,99894.03
2022-12-14T13:34:28.368Z,99892.09
2022-12-14T13:37:20.310Z,99886.67
2022-12-14T13:40:20.316Z,99883.12
2022-12-14T13:42:59.022Z,99880.30
2022-12-14T13:45:40.077Z,99879.30
2022-12-14T13:48:20.263Z,99875.61
2022-12-14T13:51:01.821Z,99869.39
2022-12-14T13:53:38.134Z,99866.67
2022-12-14T13:56:08.028Z,99868.22
2022-12-14T13:58:43.127Z,99863.73
2022-12-14T14:01:16.083Z,99869.41
2022-12-14T14:03:56.394Z,99858.98
2022-12-14T14:06:41.430Z,99861.23
2022-12-14T14:09:59.167Z,99855.88
2022-12-14T14:12:38.729Z,99853.84
2022-12-14T14:16:11.251Z,99852.72
2022-12-14T14:18:47.200Z,99836.32
2022-12-14T14:21:52.472Z,99837.77
2022-12-14T14:24:27.584Z,99840.03
2022-12-14T14:27:10.707Z,99843.16
2022-12-14T14:29:46.670Z,99838.72
2022-12-14T14:32:38.234Z,99840.16
2022-12-14T14:35:22.865Z,99835.76
2022-12-14T14:38:01.531Z,99833.06
2022-12-14T14:41:06.672Z,99835.39
2022-12-14T14:43:32.160Z,99828.41
2022-12-14T14:46:07.285Z,99825.81
2022-12-14T14:48:40.700Z,99827.40
2022-12-14T14:51:21.197Z,99822.17
2022-12-14T14:57:55.407Z,99815.96
2022-12-14T15:00:25.178Z,99811.59
2022-12-14T15:02:55.552Z,99809.72
2022-12-14T15:05:43.820Z,99796.88
2022-12-14T15:08:22.529Z,99798.31
2022-12-14T15:10:54.000Z,99787.94
2022-12-14T15:13:28.429Z,99782.75
2022-12-14T15:15:58.971Z,99778.38
2022-12-14T15:18:30.583Z,99779.95
2022-12-14T15:21:03.432Z,99773.02
2022-12-14T15:23:38.002Z,99765.34
2022-12-14T15:26:16.963Z,99761.70
2022-12-14T15:28:52.795Z,99765.03
2022-12-14T15:31:30.935Z,99760.69
2022-12-14T15:34:01.260Z,99758.06
2022-12-14T15:36:34.954Z,99756.34
2022-12-14T15:39:04.499Z,99750.33
2022-12-14T15:41:35.312Z,99753.72
2022-12-14T15:44:20.473Z,99753.66
2022-12-14T15:46:55.103Z,99749.31
2022-12-14T15:49:24.236Z,99750.96
2022-12-14T15:51:57.125Z,99746.68
2022-12-14T15:54:28.854Z,99745.09
2022-12-14T15:56:59.941Z,99742.56
2022-12-14T15:59:32.031Z,99733.27
2022-12-14T16:02:15.101Z,99730.73
2022-12-14T16:04:45.524Z,99732.42
2022-12-14T16:07:19.384Z,99725.77
2022-12-14T16:09:51.952Z,99723.23
2022-12-14T16:12:24.294Z,99719.11
2022-12-14T16:14:56.910Z,99712.30
2022-12-14T16:17:31.615Z,99715.78
2022-12-14T16:20:04.797Z,99714.09
2022-12-14T16:22:38.363Z,99714.95
2022-12-14T16:25:19.817Z,99714.95
2022-12-14T16:27:50.929Z,99711.72
2022-12-14T16:30:30.640Z,99703.22
2022-12-14T16:33:18.250Z,99704.17
2022-12-14T16:35:58.078Z,99691.56
2022-12-14T16:38:27.277Z,99692.45
2022-12-14T16:41:05.187Z,99699.26
2022-12-14T16:43:37.613Z,99686.64
2022-12-14T16:46:21.129Z,99683.31
2022-12-14T16:49:19.466Z,99680.77
2022-12-14T16:52:07.237Z,99672.43
2022-12-14T16:54:41.008Z,99675.06
2022-12-14T16:57:20.443Z,99670.84
2022-12-14T17:00:02.266Z,99666.66
2022-12-14T17:02:36.308Z,99663.30
2022-12-14T17:05:16.530Z,99666.72
2022-12-14T17:07:47.665Z,99660.84
2022-12-14T17:10:25.231Z,99661.70
2022-12-14T17:13:01.929Z,99653.39
2022-12-14T17:15:39.123Z,99650.91
2022-12-14T17:18:13.987Z,99642.51
2022-12-14T17:20:46.763Z,99637.49
2022-12-14T17:23:18.520Z,99632.52
2022-12-14T17:25:49.024Z,99626.61
2022-12-14T17:28:25.048Z,99617.41
2022-12-14T17:30:57.538Z,99619.14
2022-12-14T17:33:28.792Z,99615.88
2022-12-14T17:35:58.478Z,99610.00
2022-12-14T17:38:27.508Z,99611.83
2022-12-14T17:41:02.863Z,99604.28
2022-12-14T17:43:35.600Z,99600.05
2022-12-14T17:46:07.131Z,99586.66
2022-12-14T17:48:40.658Z,99586.72
2022-12-14T17:51:25.166Z,99586.77
2022-12-14T17:53:56.150Z,99580.11
2022-12-14T17:56:30.282Z,99578.51
2022-12-14T17:59:01.714Z,99570.09
2022-12-14T18:04:22.535Z,99560.89
2022-12-14T18:07:00.909Z,99559.29
2022-12-14T18:09:34.040Z,99566.11
2022-12-14T18:14:55.000Z,99553.52
2022-12-14T18:17:25.149Z,99557.89
2022-12-14T18:19:59.457Z,99558.80
2022-12-14T18:22:28.989Z,99553.80
2022-12-14T18:25:08.507Z,99555.55
2022-12-14T18:27:38.518Z,99567.48
2022-12-14T18:30:12.120Z,99572.63
2022-12-14T18:32:51.881Z,99566.75
2022-12-14T18:35:26.226Z,99558.39
2022-12-14T18:37:56.833Z,99550.86
2022-12-14T18:40:29.496Z,99546.72
2022-12-14T18:42:58.893Z,99541.69
2022-12-14T18:45:33.806Z,99543.48
2022-12-14T18:48:10.879Z,99538.49
2022-12-14T18:50:49.667Z,99531.78
2022-12-14T18:53:21.760Z,99534.41
2022-12-14T18:56:01.712Z,99533.66
2022-12-14T18:58:45.581Z,99529.52
2022-12-14T19:01:18.520Z,99529.56
2022-12-14T19:03:49.012Z,99522.88
2022-12-14T19:06:43.615Z,99518.69
2022-12-14T19:09:13.413Z,99522.94
2022-12-14T19:11:48.134Z,99520.53
2022-12-14T19:14:20.446Z,99521.42
2022-12-14T19:16:52.182Z,99524.00
2022-12-14T19:19:24.296Z,99530.02
2022-12-14T19:21:57.615Z,99520.72
2022-12-14T19:24:27.760Z,99525.88
2022-12-14T19:26:58.519Z,99527.72
2022-12-14T19:29:28.452Z,99518.45
2022-12-14T19:32:05.327Z,99527.80
2022-12-14T19:34:36.841Z,99523.63
2022-12-14T19:37:06.967Z,99526.30
2022-12-14T19:39:37.721Z,99525.49
2022-12-14T19:42:07.103Z,99525.55
2022-12-14T19:44:36.860Z,99525.68
2022-12-14T19:47:06.449Z,99523.19
2022-12-14T19:49:36.086Z,99520.73
2022-12-14T19:52:09.080Z,99522.52
2022-12-14T19:54:39.559Z,99516.63
2022-12-14T19:57:11.081Z,99510.75
2022-12-14T19:59:44.876Z,99503.98
2022-12-14T20:02:15.087Z,99502.32
2022-12-14T20:04:47.029Z,99492.20
2022-12-14T20:07:16.682Z,99486.32
2022-12-14T20:09:47.685Z,99484.66
2022-12-14T20:12:18.060Z,99482.17
2022-12-14T20:14:49.344Z,99470.40
2022-12-14T20:17:19.387Z,99467.05
2022-12-14T20:19:48.789Z,99462.02
2022-12-14T20:22:18.165Z,99460.41
2022-12-14T20:24:48.277Z,99448.55
2022-12-14T20:27:20.018Z,99449.44
2022-12-14T20:29:50.973Z,99457.16
2022-12-14T20:32:20.097Z,99457.23
2022-12-14T20:34:49.567Z,99459.02
2022-12-14T20:37:34.276Z,99458.21
2022-12-14T20:40:02.415Z,99450.59
2022-12-14T20:42:31.431Z,99453.17
2022-12-14T20:45:06.702Z,99453.25
2022-12-14T20:47:36.180Z,99448.19
2022-12-14T20:50:06.258Z,99440.61
2022-12-14T20:52:35.211Z,99426.28
2022-12-14T20:55:04.672Z,99427.21
2022-12-14T20:57:33.747Z,99418.78
2022-12-14T21:00:05.620Z,99420.52
2022-12-14T21:02:34.439Z,99409.46
2022-12-14T21:05:04.421Z,99405.31
2022-12-14T21:07:33.253Z,99402.03
2022-12-14T21:10:04.944Z,99393.52
2022-12-14T21:12:36.375Z,99391.91
2022-12-14T21:15:06.841Z,99398.73
2022-12-14T21:17:35.729Z,99387.75
2022-12-14T21:20:05.702Z,99389.41
2022-12-14T21:22:35.163Z,99386.14
2022-12-14T21:25:06.385Z,99378.55
2022-12-14T21:27:38.406Z,99376.13
2022-12-14T21:30:13.477Z,99382.06
2022-12-14T21:32:42.392Z,99382.11
2022-12-14T21:35:12.695Z,99384.72
2022-12-14T21:37:42.267Z,99385.65
2022-12-14T21:40:33.693Z,99378.91
2022-12-14T21:43:07.249Z,99363.73
2022-12-14T21:45:38.975Z,99364.66
2022-12-14T21:48:08.007Z,99362.11
2022-12-14T21:50:42.318Z,99356.22
2022-12-14T21:53:11.359Z,99357.11
2022-12-14T21:55:49.336Z,99357.19
2022-12-14T21:58:18.223Z,99352.09
2022-12-14T22:00:47.772Z,99344.51
2022-12-14T22:03:16.988Z,99336.99
2022-12-14T22:05:46.573Z,99334.45
2022-12-14T22:08:15.299Z,99331.95
2022-12-14T22:10:44.273Z,99334.60
2022-12-14T22:13:15.486Z,99331.25
2022-12-14T22:15:46.223Z,99337.26
2022-12-14T22:18:18.384Z,99338.92
2022-12-14T22:20:50.638Z,99336.38
2022-12-14T22:23:19.598Z,99334.72
2022-12-14T22:25:50.186Z,99329.67
2022-12-14T22:28:18.929Z,99331.41
2022-12-14T22:30:48.370Z,99319.53
2022-12-14T22:33:17.910Z,99321.27
2022-12-14T22:35:47.516Z,99315.37
2022-12-14T22:38:16.586Z,99311.97
2022-12-14T22:40:46.098Z,99309.43
2022-12-14T22:43:14.984Z,99313.70
2022-12-14T22:45:44.317Z,99316.25
2022-12-14T22:48:14.004Z,99306.08
2022-12-14T22:50:43.360Z,99295.90
2022-12-14T22:53:13.445Z,99294.16
2022-12-14T22:55:46.296Z,99295.02
2022-12-14T22:58:19.723Z,99290.00
2022-12-14T23:00:49.668Z,99292.55
2022-12-14T23:03:18.489Z,99290.00
2022-12-14T23:05:50.223Z,99282.37
2022-12-14T23:08:18.957Z,99282.37
2022-12-14T23:11:06.685Z,99272.19
2022-12-14T23:13:53.769Z,99272.19
2022-12-14T23:16:41.074Z,99275.55
2022-12-14T23:19:28.175Z,99270.46
2022-12-14T23:22:15.156Z,99272.93
2022-12-14T23:25:02.230Z,99265.27
2022-12-14T23:27:49.328Z,99261.84
2022-12-14T23:30:37.227Z,99259.30
2022-12-14T23:33:24.286Z,99260.95
2022-12-14T23:36:11.398Z,99258.44
2022-12-14T23:38:58.892Z,99249.12
2022-12-14T23:41:47.068Z,99241.45
2022-12-14T23:44:34.423Z,99246.53
2022-12-14T23:47:24.300Z,99243.95
2022-12-14T23:50:11.768Z,99248.97
2022-12-14T23:52:59.046Z,99249.78
2022-12-14T23:55:49.716Z,99247.20
2022-12-14T23:58:37.047Z,99243.73
